Time;durP1;ratioP1;P1;durP2;ratioP2;P2;SDS_P1;SDS_P2;PMS_P1;PMS_P2;Temp;Humidity;BMP_temperature;BMP_pressure;BME280_temperature;BME280_humidity;BME280_pressure;Samples;Min_cycle;Max_cycle;Signal;HPM_P1;HPM_P2
2021/11/06 00:01:27;;;;;;;39.73;26.80;;;5.50;95.70;;;4.25;97.46;99164.44;5045893;28;20485;-74
2021/11/06 00:03:54;;;;;;;39.87;26.17;;;5.60;95.50;;;4.02;98.49;99165.78;5051093;28;20600;-71
2021/11/06 00:06:21;;;;;;;36.40;24.90;;;5.50;95.30;;;4.14;98.88;99169.97;5051143;28;20538;-71
2021/11/06 00:08:48;;;;;;;39.10;26.00;;;5.50;96.90;;;4.24;97.42;99173.47;5049047;28;20482;-73
2021/11/06 00:11:15;;;;;;;39.17;26.10;;;5.60;94.40;;;3.94;98.41;99153.13;5049283;28;20811;-72
2021/11/06 00:13:42;;;;;;;38.47;24.77;;;5.50;95.50;;;3.92;98.97;99166.66;5048617;28;20512;-71
2021/11/06 00:16:10;;;;;;;41.50;26.90;;;5.40;96.40;;;4.05;98.72;99165.50;5047275;28;20552;-72
2021/11/06 00:18:37;;;;;;;35.37;24.40;;;5.40;97.00;;;4.10;97.63;99164.09;5065092;28;20540;-71
2021/11/06 00:21:04;;;;;;;37.53;26.17;;;5.40;96.00;;;4.08;98.48;99157.19;5046651;28;21857;-72
2021/11/06 00:23:31;;;;;;;37.97;24.93;;;5.40;95.70;;;4.06;98.35;99167.19;5045495;28;20640;-71
2021/11/06 00:25:58;;;;;;;35.50;25.90;;;5.50;95.60;;;4.03;97.91;99168.31;5050916;28;20921;-72
2021/11/06 00:28:25;;;;;;;33.83;24.83;;;5.50;94.60;;;4.11;97.70;99164.91;5052120;28;20595;-71
2021/11/06 00:30:52;;;;;;;33.67;25.47;;;5.50;95.20;;;4.01;97.39;99153.38;5051050;28;20516;-72
2021/11/06 00:33:20;;;;;;;35.30;25.50;;;5.40;94.40;;;3.97;96.96;99167.06;5050401;28;20479;-73
2021/11/06 00:35:47;;;;;;;36.23;26.20;;;5.40;94.10;;;4.01;97.74;99161.41;5056221;28;20498;-73
2021/11/06 00:38:14;;;;;;;34.53;25.20;;;5.40;94.30;;;3.99;97.61;99158.91;5059696;28;20538;-71
2021/11/06 00:40:41;;;;;;;34.80;25.50;;;5.40;95.00;;;3.94;97.75;99159.31;5050115;28;20548;-73
2021/11/06 00:43:08;;;;;;;36.30;24.50;;;5.30;95.60;;;4.11;97.30;99163.09;5048909;28;20537;-72
2021/11/06 00:45:35;;;;;;;34.80;25.87;;;5.40;95.30;;;4.06;96.90;99172.53;5051753;28;20524;-71
2021/11/06 00:48:02;;;;;;;41.40;25.67;;;5.40;94.60;;;3.73;97.51;99156.84;5050878;28;20512;-70
2021/11/06 00:50:31;;;;;;;36.03;25.37;;;5.30;94.20;;;3.87;98.40;99174.28;5046157;28;20905;-73
2021/11/06 00:52:58;;;;;;;35.67;24.73;;;5.20;95.90;;;3.50;98.04;99118.88;5048150;28;20507;-73
2021/11/06 00:55:26;;;;;;;37.83;24.90;;;5.30;94.70;;;3.90;97.96;99168.63;5047091;28;20503;-73
2021/11/06 00:57:53;;;;;;;31.60;23.70;;;5.30;95.30;;;3.85;97.55;99170.06;5062259;28;21036;-73
2021/11/06 01:00:21;;;;;;;38.77;24.83;;;5.30;94.30;;;3.67;98.01;99171.59;5050131;28;20462;-72
2021/11/06 01:02:50;;;;;;;35.50;24.77;;;5.20;94.50;;;3.72;98.20;99162.34;5047798;28;20455;-73
2021/11/06 01:05:18;;;;;;;39.97;25.53;;;5.10;95.80;;;3.73;98.28;99159.50;5039817;28;20489;-73
2021/11/06 01:07:47;;;;;;;36.30;26.70;;;5.20;95.60;;;3.71;98.61;99157.94;5067574;28;20473;-73
2021/11/06 01:10:16;;;;;;;34.13;25.37;;;5.10;96.00;;;3.63;98.22;99156.84;5049901;28;20470;-72
2021/11/06 01:12:44;;;;;;;35.23;24.43;;;5.10;95.80;;;3.69;98.48;99163.47;5045071;28;20475;-74
2021/11/06 01:15:14;;;;;;;34.43;25.17;;;5.10;95.40;;;3.67;98.37;99168.09;5049697;28;20474;-73
2021/11/06 01:17:42;;;;;;;33.67;24.90;;;5.10;95.40;;;3.61;98.14;99166.00;5046426;28;20845;-72
2021/11/06 01:20:09;;;;;;;35.30;24.10;;;5.00;95.30;;;3.51;98.01;99168.69;5049172;28;20491;-73
2021/11/06 01:22:37;;;;;;;32.20;23.20;;;5.00;95.40;;;3.55;98.34;99172.75;5047206;28;20889;-73
2021/11/06 01:25:08;;;;;;;34.20;24.53;;;5.00;95.70;;;3.42;99.06;99170.38;5064867;28;20461;-73
2021/11/06 01:27:36;;;;;;;29.03;21.57;;;4.90;96.20;;;3.58;98.14;99169.81;5046256;28;20454;-74
2021/11/06 01:30:05;;;;;;;34.10;23.93;;;4.90;97.00;;;3.55;98.09;99175.41;5050461;28;20465;-74
2021/11/06 01:32:32;;;;;;;33.70;25.13;;;5.00;96.30;;;3.50;98.12;99170.53;5048289;28;20458;-73
2021/11/06 01:35:00;;;;;;;36.43;25.50;;;5.00;95.80;;;3.41;98.68;99174.03;5048474;28;20543;-72
2021/11/06 01:37:28;;;;;;;35.80;24.97;;;4.90;95.80;;;3.30;98.81;99167.00;5048816;28;20575;-73
2021/11/06 01:39:55;;;;;;;34.93;24.93;;;4.80;95.80;;;3.34;99.48;99171.06;5044612;28;20498;-72
2021/11/06 01:42:25;;;;;;;31.77;22.23;;;4.80;97.40;;;3.43;98.77;99171.22;5046045;28;20541;-73
2021/11/06 01:44:52;;;;;;;38.50;25.23;;;4.80;96.50;;;3.30;98.93;99164.34;5059877;28;20458;-72
2021/11/06 01:47:19;;;;;;;37.20;24.60;;;4.80;96.20;;;3.30;98.61;99168.81;5048156;28;20702;-73
2021/11/06 01:49:46;;;;;;;34.70;23.50;;;4.80;96.30;;;3.25;99.25;99163.88;5042414;28;22327;-73
2021/11/06 01:52:13;;;;;;;34.80;23.97;;;4.70;96.90;;;3.24;99.17;99164.88;5050770;28;20526;-72
2021/11/06 01:54:40;;;;;;;38.33;24.57;;;4.70;96.90;;;3.16;99.94;99159.41;5041637;28;20525;-72
2021/11/06 01:57:08;;;;;;;34.47;24.90;;;4.60;96.90;;;3.15;99.69;99168.41;5049633;28;20519;-73
2021/11/06 01:59:36;;;;;;;38.70;25.47;;;4.60;97.30;;;3.26;99.42;99160.22;5050953;28;20942;-73
2021/11/06 02:02:04;;;;;;;33.10;24.87;;;4.60;98.30;;;3.17;99.47;99158.41;5048376;28;20495;-73
2021/11/06 02:04:31;;;;;;;35.13;24.70;;;4.60;97.70;;;3.17;99.77;99166.44;5052317;28;20533;-73
2021/11/06 02:06:58;;;;;;;30.83;21.57;;;4.60;98.10;;;3.12;99.58;99158.84;5051084;28;20470;-74
2021/11/06 02:09:25;;;;;;;36.87;25.43;;;4.60;97.90;;;3.17;99.48;99161.09;5065117;28;20548;-73
2021/11/06 02:11:54;;;;;;;32.40;23.27;;;4.60;98.20;;;3.05;100.00;99149.72;5051955;28;20972;-73
2021/11/06 02:14:22;;;;;;;30.87;23.83;;;4.60;98.20;;;3.17;99.84;99158.41;5065740;28;20490;-72
2021/11/06 02:16:51;;;;;;;33.40;24.23;;;4.60;98.20;;;3.18;98.91;99162.78;5052344;28;20569;-73
2021/11/06 02:19:19;;;;;;;35.50;22.80;;;4.60;97.20;;;3.08;99.69;99165.44;5068707;28;20829;-73
2021/11/06 02:21:48;;;;;;;36.30;23.33;;;4.60;97.20;;;3.17;98.86;99163.75;5051388;28;20641;-74
2021/11/06 02:24:14;;;;;;;37.73;22.57;;;4.60;97.00;;;3.10;99.18;99161.63;5049719;28;21210;-74
2021/11/06 02:26:41;;;;;;;31.03;23.07;;;4.60;97.00;;;3.07;99.16;99158.41;5041675;28;20465;-74
2021/11/06 02:29:08;;;;;;;32.80;23.90;;;4.60;96.90;;;3.20;98.86;99166.16;5049666;28;20538;-72
2021/11/06 02:31:35;;;;;;;32.93;23.40;;;4.60;96.70;;;3.08;99.24;99162.78;5052146;28;20569;-73
2021/11/06 02:34:02;;;;;;;33.83;23.70;;;4.60;96.80;;;2.98;99.50;99152.09;5049884;28;20546;-74
2021/11/06 02:36:30;;;;;;;34.77;22.37;;;4.50;97.10;;;2.79;99.61;99103.00;5053491;28;20513;-75
2021/11/06 02:38:59;;;;;;;35.03;23.63;;;4.60;97.30;;;3.19;98.74;99172.47;5051058;28;20457;-74
2021/11/06 02:41:26;;;;;;;32.83;23.67;;;4.60;96.80;;;3.09;98.91;99167.97;5052434;28;20511;-74
2021/11/06 02:43:54;;;;;;;33.90;23.50;;;4.60;96.50;;;3.15;99.29;99171.06;5050977;28;20557;-73
2021/11/06 02:46:21;;;;;;;30.70;22.80;;;4.60;97.50;;;3.17;99.02;99166.44;5049450;28;20458;-73
2021/11/06 02:48:48;;;;;;;36.90;23.77;;;4.60;97.20;;;3.23;99.22;99171.19;5052327;28;20564;-75
2021/11/06 02:51:15;;;;;;;34.63;22.60;;;4.60;96.60;;;3.28;98.57;99174.31;5053368;28;20457;-72
2021/11/06 02:53:42;;;;;;;33.67;21.63;;;4.60;96.90;;;3.09;98.62;99173.28;5051583;28;20478;-75
2021/11/06 02:56:10;;;;;;;32.30;23.03;;;4.60;96.10;;;3.09;98.86;99165.28;5048756;28;21122;-72
2021/11/06 02:58:37;;;;;;;31.60;21.50;;;4.60;97.20;;;3.10;99.22;99163.47;5049345;28;20493;-70
2021/11/06 03:01:05;;;;;;;30.80;21.80;;;4.60;97.60;;;3.02;100.00;99174.00;5060003;28;20814;-72
2021/11/06 03:03:32;;;;;;;31.67;21.93;;;4.50;97.50;;;3.16;99.86;99173.59;5048419;28;20536;-72
2021/11/06 03:05:59;;;;;;;28.83;21.13;;;4.50;97.90;;;3.10;99.38;99172.31;5051360;28;20468;-72
2021/11/06 03:08:27;;;;;;;33.53;23.57;;;4.50;97.10;;;2.97;99.41;99166.41;5046803;28;20985;-71
2021/11/06 03:10:54;;;;;;;32.80;22.00;;;4.50;97.50;;;2.85;99.86;99164.84;5050440;28;21061;-71
2021/11/06 03:13:23;;;;;;;39.80;24.60;;;4.40;98.40;;;2.95;99.72;99174.56;5049592;28;21208;-72
2021/11/06 03:15:50;;;;;;;29.77;20.60;;;4.40;98.20;;;3.01;100.00;99181.19;5051436;28;20816;-73
2021/11/06 03:18:17;;;;;;;35.00;22.77;;;4.50;99.20;;;3.06;99.31;99176.25;5048856;28;20466;-73
2021/11/06 03:20:44;;;;;;;33.07;23.17;;;4.50;98.70;;;3.03;99.21;99171.19;5067007;28;20449;-72
2021/11/06 03:23:11;;;;;;;33.03;22.80;;;4.50;97.60;;;3.09;99.87;99181.31;5050408;28;20473;-73
2021/11/06 03:25:38;;;;;;;33.07;22.47;;;4.50;97.60;;;3.05;100.00;99182.56;5049745;28;20466;-73
2021/11/06 03:28:06;;;;;;;33.00;23.00;;;4.50;98.00;;;3.07;99.75;99188.63;5046254;28;20515;-73
2021/11/06 03:30:34;;;;;;;32.90;22.40;;;4.50;97.40;;;2.83;100.00;99181.00;5051223;28;20528;-73
2021/11/06 03:33:01;;;;;;;34.40;21.97;;;4.40;97.90;;;2.96;99.98;99186.91;5048609;28;20465;-72
2021/11/06 03:35:28;;;;;;;33.27;22.83;;;4.40;99.20;;;2.98;100.00;99192.97;5050637;28;20446;-72
2021/11/06 03:37:55;;;;;;;35.87;22.87;;;4.40;98.70;;;2.94;99.89;99198.72;5051914;28;20572;-73
2021/11/06 03:40:22;;;;;;;36.07;22.30;;;4.40;98.80;;;2.99;99.95;99193.81;5049900;28;20469;-75
2021/11/06 03:42:49;;;;;;;33.60;22.30;;;4.50;98.50;;;2.99;100.00;99191.16;5049126;28;20516;-72
2021/11/06 03:45:16;;;;;;;40.83;24.37;;;4.40;98.30;;;2.93;99.66;99197.03;5051761;28;20538;-73
2021/11/06 03:47:45;;;;;;;36.37;23.20;;;4.50;96.70;;;2.96;99.63;99191.44;5052650;28;20542;-72
2021/11/06 03:50:12;;;;;;;33.40;23.57;;;4.40;97.40;;;3.01;99.47;99193.66;5050746;28;20454;-73
2021/11/06 03:52:40;;;;;;;34.93;22.10;;;4.50;97.80;;;3.09;99.48;99201.84;5049936;28;21261;-72
2021/11/06 03:55:10;;;;;;;29.60;21.93;;;4.50;97.00;;;2.99;99.21;99201.84;5048991;28;20882;-72
2021/11/06 03:57:38;;;;;;;28.47;19.60;;;4.50;95.80;;;3.16;99.07;99186.13;5046691;28;20850;-72
2021/11/06 04:00:08;;;;;;;33.47;21.60;;;4.50;96.60;;;3.24;97.65;99204.94;5049039;28;20948;-73
2021/11/06 04:02:35;;;;;;;31.70;22.27;;;4.60;95.20;;;3.00;98.61;99202.66;5043924;28;20535;-72
2021/11/06 04:05:05;;;;;;;29.57;20.67;;;4.50;95.00;;;2.82;99.37;99193.50;5049501;28;20472;-71
2021/11/06 04:07:32;;;;;;;35.10;22.43;;;4.40;95.50;;;2.78;99.11;99192.06;5048223;28;20496;-73
2021/11/06 04:10:01;;;;;;;35.50;21.60;;;4.30;95.60;;;2.71;99.22;99198.94;5046540;28;20450;-73
2021/11/06 04:12:28;;;;;;;29.10;20.57;;;4.30;96.10;;;2.76;99.68;99196.72;5049725;28;20498;-72
2021/11/06 04:14:55;;;;;;;29.63;20.67;;;4.30;97.00;;;2.93;99.27;99207.69;5048147;28;20548;-74
2021/11/06 04:17:22;;;;;;;32.90;21.47;;;4.30;97.10;;;2.62;99.39;99199.75;5049550;28;20904;-72
2021/11/06 04:19:49;;;;;;;34.83;22.90;;;4.20;95.70;;;2.45;100.00;99193.25;5048499;28;20454;-72
2021/11/06 04:22:18;;;;;;;32.10;20.47;;;4.10;96.50;;;2.56;100.00;99201.13;5050216;28;20548;-73
2021/11/06 04:24:45;;;;;;;35.33;22.37;;;4.10;98.20;;;2.33;99.89;99148.00;5050301;28;20465;-73
2021/11/06 04:27:12;;;;;;;33.50;22.37;;;4.10;97.60;;;2.60;99.73;99197.22;5051000;28;20466;-73
2021/11/06 04:29:39;;;;;;;33.97;22.17;;;4.10;97.50;;;2.69;99.85;99211.59;5049473;28;20548;-73
2021/11/06 04:32:07;;;;;;;34.37;22.60;;;4.10;97.30;;;2.63;99.35;99204.09;5044499;28;20486;-74
2021/11/06 04:34:34;;;;;;;32.60;22.33;;;4.10;96.30;;;2.64;99.61;99205.78;5048279;28;20556;-72
2021/11/06 04:37:01;;;;;;;32.80;20.87;;;4.10;97.00;;;2.60;99.31;99183.03;5050061;28;20877;-72
2021/11/06 04:39:30;;;;;;;31.93;21.20;;;4.10;96.90;;;2.66;98.93;99195.84;5046058;28;20561;-72
2021/11/06 04:41:57;;;;;;;33.30;20.50;;;4.10;96.10;;;2.61;98.88;99198.91;5047449;28;21000;-72
2021/11/06 04:44:24;;;;;;;30.60;20.60;;;4.10;95.70;;;2.62;98.99;99199.75;5051583;28;20915;-72
2021/11/06 04:46:51;;;;;;;29.50;21.17;;;4.10;95.80;;;2.51;99.21;99200.69;5048990;28;20505;-71
2021/11/06 04:49:18;;;;;;;28.27;20.10;;;4.10;95.60;;;2.52;99.20;99197.91;5049366;28;20478;-72
2021/11/06 04:51:45;;;;;;;32.00;21.93;;;4.00;96.90;;;2.50;99.35;99197.22;5044227;28;20508;-72
2021/11/06 04:54:13;;;;;;;31.63;20.60;;;4.00;96.40;;;2.45;98.96;99204.75;5041812;28;20549;-73
2021/11/06 04:56:43;;;;;;;32.13;21.70;;;4.00;95.70;;;2.50;99.60;99202.53;5062652;28;20469;-73
2021/11/06 04:59:11;;;;;;;34.20;21.83;;;4.00;96.50;;;2.49;99.39;99211.50;5051467;28;20483;-73
2021/11/06 05:01:38;;;;;;;31.90;20.60;;;4.00;95.90;;;2.41;99.92;99208.66;5050635;28;20550;-71
2021/11/06 05:04:05;;;;;;;31.63;21.50;;;4.00;96.70;;;2.47;99.70;99215.28;5050147;28;20516;-72
2021/11/06 05:06:32;;;;;;;34.67;22.93;;;4.00;96.40;;;2.19;98.97;99173.19;5051195;28;20458;-72
2021/11/06 05:08:59;;;;;;;30.27;20.77;;;4.00;96.00;;;2.34;100.00;99218.16;5048766;28;20798;-72
2021/11/06 05:11:27;;;;;;;34.80;22.20;;;3.90;96.20;;;2.31;100.00;99218.44;5045228;28;20545;-72
2021/11/06 05:13:55;;;;;;;35.17;23.03;;;3.90;97.50;;;2.33;99.96;99217.34;5049563;28;20536;-73
2021/11/06 05:16:22;;;;;;;35.47;22.20;;;3.90;97.20;;;2.34;99.77;99215.50;5047553;28;20681;-72
2021/11/06 05:18:49;;;;;;;38.33;24.07;;;3.90;98.00;;;2.34;99.99;99197.69;5050387;28;20524;-74
2021/11/06 05:21:17;;;;;;;34.00;23.67;;;3.90;98.40;;;2.48;99.41;99217.81;5050141;28;20454;-73
2021/11/06 05:23:44;;;;;;;35.20;24.03;;;4.00;96.60;;;2.39;99.32;99226.63;5058091;28;20454;-73
2021/11/06 05:26:11;;;;;;;31.37;21.47;;;3.90;95.70;;;2.38;99.36;99224.94;5064707;28;20462;-71
2021/11/06 05:28:38;;;;;;;31.57;21.30;;;3.90;95.60;;;2.36;99.69;99216.25;5085225;28;20446;-72
2021/11/06 05:31:06;;;;;;;30.47;21.20;;;3.90;97.20;;;2.35;98.31;99222.53;5078770;28;20775;-71
2021/11/06 05:33:33;;;;;;;32.60;22.07;;;3.90;95.10;;;2.41;98.92;99224.66;5079515;28;20457;-71
2021/11/06 05:36:00;;;;;;;31.10;21.47;;;3.90;95.60;;;2.43;99.30;99228.06;5054473;28;20510;-72
2021/11/06 05:38:27;;;;;;;35.43;22.10;;;3.90;96.00;;;2.60;98.47;99218.59;5047495;28;20450;-72
2021/11/06 05:40:54;;;;;;;31.00;20.67;;;4.00;96.10;;;2.50;98.39;99229.22;5048682;28;20865;-72
2021/11/06 05:43:21;;;;;;;31.70;21.40;;;4.00;95.30;;;2.39;98.07;99219.47;5047891;28;20870;-75
2021/11/06 05:45:48;;;;;;;33.50;20.70;;;4.00;94.30;;;2.35;98.19;99230.53;5048904;28;20542;-72
2021/11/06 05:48:17;;;;;;;30.83;20.00;;;3.90;94.30;;;2.40;98.87;99228.31;5041053;28;20533;-73
2021/11/06 05:50:44;;;;;;;28.57;19.63;;;3.90;95.20;;;2.32;98.78;99239.66;5041031;28;20927;-72
2021/11/06 05:53:11;;;;;;;31.33;20.00;;;3.80;94.90;;;2.15;98.57;99235.75;5048851;28;20509;-72
2021/11/06 05:55:39;;;;;;;32.73;20.97;;;3.80;94.50;;;2.19;98.97;99237.19;5049524;28;20458;-72
2021/11/06 05:58:06;;;;;;;27.13;17.37;;;3.70;95.90;;;2.15;99.62;99233.09;5044391;28;20462;-71
2021/11/06 06:00:34;;;;;;;29.80;20.73;;;3.70;96.30;;;2.21;98.88;99235.25;5046827;28;20888;-72
2021/11/06 06:03:01;;;;;;;27.23;19.20;;;3.70;95.50;;;2.03;99.30;99231.47;5045839;28;20468;-73
2021/11/06 06:05:29;;;;;;;32.27;19.97;;;3.60;95.60;;;1.90;99.27;99219.22;5044804;28;20845;-71
2021/11/06 06:07:56;;;;;;;28.10;18.10;;;3.50;95.80;;;1.89;99.28;99244.16;5054370;28;20465;-72
2021/11/06 06:10:23;;;;;;;30.60;18.60;;;3.40;95.70;;;1.75;99.78;99236.50;5060133;28;20852;-72
2021/11/06 06:12:53;;;;;;;31.67;24.67;;;3.30;97.70;;;1.84;100.00;99257.03;5060530;28;20443;-72
2021/11/06 06:15:21;;;;;;;28.53;18.60;;;3.30;99.10;;;1.92;100.00;99254.56;5064436;28;20456;-73
2021/11/06 06:17:49;;;;;;;31.70;20.87;;;3.40;99.90;;;1.96;99.72;99248.00;5066728;28;20888;-71
2021/11/06 06:20:19;;;;;;;30.47;19.80;;;3.40;98.00;;;1.98;99.69;99246.03;5067578;28;20450;-72
2021/11/06 06:22:47;;;;;;;28.67;20.07;;;3.40;97.40;;;1.89;100.00;99249.47;5068874;28;20454;-73
2021/11/06 06:25:16;;;;;;;30.80;20.20;;;3.40;98.00;;;1.91;100.00;99258.22;5064008;28;20454;-73
2021/11/06 06:27:46;;;;;;;32.50;20.07;;;3.40;99.80;;;1.90;100.00;99248.53;5069384;28;20517;-72
2021/11/06 06:30:15;;;;;;;30.27;21.37;;;3.40;99.00;;;1.92;100.00;99261.72;5063296;28;20512;-72
2021/11/06 06:32:44;;;;;;;28.20;18.83;;;3.40;98.40;;;2.03;99.96;99260.78;5067592;28;20459;-72
2021/11/06 06:35:12;;;;;;;30.33;20.60;;;3.50;98.00;;;2.01;100.00;99270.75;5055247;28;20449;-73
2021/11/06 06:37:40;;;;;;;33.00;20.03;;;3.50;97.50;;;2.01;99.51;99260.09;5065008;28;20996;-73
2021/11/06 06:40:11;;;;;;;31.67;19.73;;;3.50;97.40;;;1.97;99.73;99263.00;5050930;28;20454;-72
2021/11/06 06:42:38;;;;;;;29.70;20.67;;;3.40;97.30;;;1.93;99.65;99282.06;5055827;28;20450;-75
2021/11/06 06:45:06;;;;;;;32.07;21.00;;;3.40;96.90;;;1.90;99.51;99272.53;5066053;28;20494;-73
2021/11/06 06:47:34;;;;;;;31.37;19.90;;;3.40;96.40;;;1.67;100.00;99269.94;5052827;28;20566;-74
2021/11/06 06:50:01;;;;;;;34.97;22.03;;;3.30;97.60;;;1.70;100.00;99280.34;5051529;28;20977;-73
2021/11/06 06:52:28;;;;;;;32.67;20.73;;;3.20;99.90;;;1.67;100.00;99285.09;5051898;28;20571;-73
2021/11/06 06:54:55;;;;;;;35.60;21.80;;;3.20;99.90;;;1.61;100.00;99283.78;5060229;28;20557;-72
2021/11/06 06:57:24;;;;;;;33.03;20.33;;;3.20;99.90;;;1.76;100.00;99286.16;5048679;28;20561;-72
2021/11/06 06:59:51;;;;;;;32.10;20.40;;;3.20;99.90;;;1.73;100.00;99284.56;5059300;28;20519;-72
2021/11/06 07:02:18;;;;;;;33.97;21.90;;;3.20;99.90;;;1.84;100.00;99294.34;5047784;28;21137;-72
2021/11/06 07:04:45;;;;;;;33.50;21.20;;;3.30;99.90;;;1.67;100.00;99275.28;5053938;28;20445;-72
2021/11/06 07:07:12;;;;;;;33.40;20.17;;;3.30;99.90;;;1.76;100.00;99288.81;5051444;28;20492;-73
2021/11/06 07:09:39;;;;;;;29.23;19.30;;;3.30;99.90;;;1.83;100.00;99288.19;5053332;28;20973;-74
2021/11/06 07:12:08;;;;;;;33.80;20.87;;;3.30;99.90;;;1.84;100.00;99294.34;5051262;28;20466;-74
2021/11/06 07:14:37;;;;;;;38.53;24.57;;;3.40;99.90;;;1.31;100.00;99232.06;5069950;28;21032;-72
2021/11/06 07:17:04;;;;;;;34.73;22.77;;;3.30;99.90;;;1.88;100.00;99301.09;5052690;28;20482;-72
2021/11/06 07:19:31;;;;;;;26.87;19.03;;;3.40;99.90;;;2.19;100.00;99301.19;5052678;28;20537;-71
2021/11/06 07:21:58;;;;;;;30.97;21.13;;;3.60;99.90;;;2.34;99.33;99311.53;5054510;28;20466;-72
2021/11/06 07:24:25;;;;;;;33.73;20.40;;;3.80;97.40;;;2.34;98.97;99316.84;5049160;28;20481;-72
2021/11/06 07:26:52;;;;;;;38.93;21.13;;;3.80;96.40;;;2.45;98.40;99316.78;5054875;28;21120;-70
2021/11/06 07:29:19;;;;;;;32.03;21.07;;;3.90;94.80;;;2.35;98.19;99310.53;5051981;28;20797;-69
2021/11/06 07:31:48;;;;;;;30.97;21.23;;;4.00;93.50;;;2.28;98.55;99304.91;5054918;28;20454;-73
2021/11/06 07:34:15;;;;;;;36.53;20.70;;;3.90;94.10;;;2.34;97.94;99304.38;5054424;28;20486;-73
2021/11/06 07:36:42;;;;;;;37.63;23.90;;;4.00;93.80;;;2.49;98.09;99307.53;5069924;28;20466;-72
2021/11/06 07:39:09;;;;;;;39.93;22.40;;;4.00;94.00;;;2.71;97.90;99315.53;5065053;28;20446;-74
2021/11/06 07:41:36;;;;;;;37.60;21.40;;;4.10;94.30;;;2.69;96.33;99319.16;5068462;28;20453;-74
2021/11/06 07:44:03;;;;;;;32.03;20.57;;;4.20;92.70;;;2.76;97.03;99321.31;5068053;28;20933;-75
2021/11/06 07:46:30;;;;;;;34.67;21.50;;;4.20;93.10;;;2.68;96.60;99319.31;5066576;28;20473;-74
2021/11/06 07:48:59;;;;;;;31.50;20.63;;;4.20;92.40;;;2.77;96.85;99326.50;5068168;28;20458;-74
2021/11/06 07:51:28;;;;;;;38.70;21.53;;;4.20;92.60;;;2.73;96.96;99321.56;5073817;28;20489;-75
2021/11/06 07:53:55;;;;;;;32.03;21.50;;;4.20;92.70;;;3.45;96.10;99325.06;5058304;28;20442;-74
2021/11/06 07:56:22;;;;;;;32.00;20.17;;;4.60;94.00;;;3.52;93.65;99326.22;5062386;28;20458;-72
2021/11/06 07:58:50;;;;;;;34.17;20.17;;;4.90;90.90;;;3.02;94.00;99318.19;5063492;28;20486;-72
2021/11/06 08:01:17;;;;;;;32.83;21.27;;;4.70;89.80;;;3.37;92.65;99317.72;5060309;28;20449;-72
2021/11/06 08:03:44;;;;;;;33.70;21.17;;;4.90;89.10;;;2.88;94.15;99316.75;5055601;28;20458;-73
2021/11/06 08:06:14;;;;;;;29.03;20.10;;;4.60;89.40;;;3.10;95.96;99315.69;5066662;28;21562;-74
2021/11/06 08:08:41;;;;;;;33.50;21.37;;;4.50;92.20;;;3.59;93.30;99326.50;5044703;28;20946;-73
2021/11/06 08:11:08;;;;;;;29.70;20.73;;;4.80;90.60;;;3.68;91.70;99325.66;5050732;28;20504;-74
2021/11/06 08:13:35;;;;;;;29.47;18.67;;;5.00;88.00;;;3.85;93.17;99320.59;5054702;28;20450;-73
2021/11/06 08:16:04;;;;;;;30.40;18.40;;;5.10;90.00;;;4.00;90.55;99323.72;5065999;28;20454;-73
2021/11/06 08:18:32;;;;;;;28.23;20.40;;;5.30;86.30;;;4.16;89.04;99323.13;5048538;28;20565;-73
2021/11/06 08:20:59;;;;;;;27.20;19.10;;;5.40;85.50;;;4.02;89.43;99326.25;5051764;28;20462;-71
2021/11/06 08:23:27;;;;;;;27.23;18.97;;;5.50;83.90;;;3.53;91.26;99321.69;5052873;28;20458;-72
2021/11/06 08:25:55;;;;;;;29.30;20.07;;;5.10;85.10;;;3.52;92.18;99328.88;5063057;28;20503;-73
2021/11/06 08:28:22;;;;;;;30.33;20.60;;;4.90;89.00;;;3.33;92.15;99335.03;5048523;28;20454;-71
2021/11/06 08:30:49;;;;;;;31.23;21.33;;;4.90;87.40;;;3.35;92.88;99325.03;5047539;28;20482;-72
2021/11/06 08:33:16;;;;;;;33.27;21.70;;;4.90;87.70;;;3.06;93.26;99325.78;5050060;28;20462;-72
2021/11/06 08:35:43;;;;;;;31.83;20.37;;;4.80;87.50;;;4.03;92.11;99330.63;5044112;28;20516;-74
2021/11/06 08:38:12;;;;;;;33.37;21.83;;;5.10;90.10;;;3.97;89.56;99335.53;5048035;28;21297;-74
2021/11/06 08:40:44;;;;;;;28.77;19.50;;;5.40;85.50;;;3.83;91.27;99331.47;5041678;28;20461;-73
2021/11/06 08:43:11;;;;;;;27.93;19.97;;;5.20;86.70;;;4.21;88.17;99333.41;5045771;28;20496;-73
2021/11/06 08:45:39;;;;;;;27.73;20.27;;;5.50;84.00;;;4.32;88.36;99332.41;5046235;28;20630;-73
2021/11/06 08:48:07;;;;;;;29.07;21.00;;;5.60;84.20;;;3.77;90.60;99340.03;5063309;28;20792;-75
2021/11/06 08:50:35;;;;;;;28.27;19.77;;;5.40;84.10;;;4.04;89.84;99329.66;5047839;28;21141;-74
2021/11/06 08:53:02;;;;;;;28.33;19.03;;;5.60;83.50;;;4.24;89.93;99333.97;5047289;28;21365;-72
2021/11/06 08:55:29;;;;;;;31.30;20.13;;;5.60;84.60;;;4.51;87.86;99336.91;5036375;28;20487;-74
2021/11/06 08:58:01;;;;;;;31.87;20.60;;;5.80;83.10;;;4.09;89.18;99328.22;5047437;28;20473;-72
2021/11/06 09:00:36;;;;;;;31.17;18.97;;;5.70;82.80;;;4.37;87.74;99335.53;5045351;28;20458;-73
2021/11/06 09:03:07;;;;;;;27.87;19.80;;;5.70;82.60;;;4.23;89.35;99329.63;5065478;28;20509;-74
2021/11/06 09:05:35;;;;;;;26.67;18.63;;;5.60;83.70;;;4.53;87.11;99340.28;5046080;28;20446;-73
2021/11/06 09:08:04;;;;;;;28.47;18.73;;;5.80;82.60;;;4.31;87.10;99336.06;5050132;28;20545;-73
2021/11/06 09:10:31;;;;;;;31.53;20.33;;;5.70;82.30;;;4.69;87.75;99334.31;5046160;28;20494;-74
2021/11/06 09:12:59;;;;;;;28.70;18.43;;;5.80;83.30;;;4.58;86.88;99338.03;5046654;28;20549;-73
2021/11/06 09:15:26;;;;;;;28.07;19.83;;;6.00;81.30;;;4.41;87.49;99338.75;5046925;28;21812;-72
2021/11/06 09:17:54;;;;;;;25.77;17.60;;;5.70;82.20;;;5.22;84.12;99345.41;5047288;28;20918;-73
2021/11/06 09:20:21;;;;;;;28.80;17.40;;;6.30;81.00;;;5.32;83.75;99345.38;5046508;28;21304;-74
2021/11/06 09:22:51;;;;;;;28.03;18.60;;;6.50;79.80;;;5.37;82.93;99351.13;5045842;28;20871;-74
2021/11/06 09:25:20;;;;;;;27.30;18.60;;;6.60;78.80;;;5.15;83.67;99347.00;5042253;28;21052;-72
2021/11/06 09:27:47;;;;;;;32.20;20.30;;;6.40;79.40;;;4.73;85.35;99346.44;5043988;28;20496;-73
2021/11/06 09:30:16;;;;;;;31.57;21.40;;;6.20;79.70;;;4.42;87.50;99349.31;5037232;28;20454;-73
2021/11/06 09:32:46;;;;;;;28.70;19.47;;;5.80;82.10;;;4.24;87.81;99339.34;5047166;28;20457;-73
2021/11/06 09:35:15;;;;;;;32.53;18.53;;;5.70;82.20;;;4.13;89.21;99344.81;5047727;28;20453;-73
2021/11/06 09:37:42;;;;;;;35.30;21.83;;;5.60;83.00;;;3.69;90.80;99354.09;5042848;28;21142;-74
2021/11/06 09:40:11;;;;;;;29.87;19.57;;;5.40;83.80;;;4.35;91.84;99351.72;5058331;28;20447;-73
2021/11/06 09:42:39;;;;;;;34.47;19.60;;;5.50;90.00;;;4.38;87.32;99354.09;5044542;28;20547;-74
2021/11/06 09:45:07;;;;;;;29.93;19.27;;;5.90;81.90;;;4.13;89.01;99360.03;5045527;28;20472;-72
2021/11/06 09:47:36;;;;;;;32.47;19.03;;;5.50;83.30;;;4.36;88.45;99353.41;5047142;28;20457;-72
2021/11/06 09:50:04;;;;;;;30.27;18.63;;;5.60;83.10;;;4.11;89.16;99357.50;5047580;28;20450;-73
2021/11/06 09:52:31;;;;;;;30.83;19.10;;;5.50;83.90;;;3.97;89.24;99350.75;5056188;28;20531;-73
2021/11/06 09:54:58;;;;;;;32.20;20.03;;;5.40;83.60;;;3.98;89.06;99357.78;5047402;28;20454;-73
2021/11/06 09:57:26;;;;;;;27.80;18.60;;;5.50;83.90;;;4.10;89.12;99355.81;5047335;28;20462;-72
2021/11/06 09:59:53;;;;;;;30.07;18.60;;;5.50;83.60;;;4.15;89.04;99348.19;5047158;28;20531;-72
2021/11/06 10:02:21;;;;;;;28.97;18.30;;;5.70;83.20;;;4.94;85.64;99361.47;5047404;28;20462;-73
2021/11/06 10:04:49;;;;;;;32.33;18.87;;;6.00;81.80;;;3.85;86.45;99264.47;5045736;28;20519;-73
2021/11/06 10:07:19;;;;;;;24.90;17.33;;;6.00;80.80;;;4.51;86.95;99353.81;5042008;28;20457;-72
2021/11/06 10:09:59;;;;;;;29.57;19.50;;;6.00;81.60;;;4.17;89.11;99340.91;5043955;28;20488;-72
2021/11/06 10:12:27;;;;;;;23.90;17.60;;;5.80;82.40;;;4.70;87.27;99346.72;5047928;28;20457;-74
2021/11/06 10:15:08;;;;;;;25.60;18.13;;;5.90;82.60;;;4.64;85.90;99352.66;5050756;28;20466;-72
2021/11/06 10:17:35;;;;;;;23.73;17.03;;;6.10;80.80;;;4.92;86.49;99339.31;5052959;28;20457;-73
2021/11/06 10:20:24;;;;;;;25.23;17.60;;;6.20;81.10;;;4.83;85.86;99343.72;5048024;28;20458;-74